createdAt,value
2023-01-07T00:02:03.896Z,6.80
2023-01-07T00:04:38.162Z,6.80
2023-01-07T00:07:05.422Z,6.80
2023-01-07T00:09:33.475Z,6.80
2023-01-07T00:12:00.904Z,6.81
2023-01-07T00:14:27.888Z,6.80
2023-01-07T00:16:55.050Z,6.79
2023-01-07T00:19:26.023Z,6.78
2023-01-07T00:21:53.438Z,6.78
2023-01-07T00:24:20.425Z,6.75
2023-01-07T00:26:47.390Z,6.75
2023-01-07T00:29:14.401Z,6.74
2023-01-07T00:31:41.295Z,6.73
2023-01-07T00:34:09.618Z,6.74
2023-01-07T00:36:36.666Z,6.72
2023-01-07T00:39:05.054Z,6.71
2023-01-07T00:41:31.975Z,6.71
2023-01-07T00:44:01.550Z,6.71
2023-01-07T00:46:29.901Z,6.69
2023-01-07T00:49:04.227Z,6.69
2023-01-07T00:51:31.258Z,6.69
2023-01-07T00:53:58.300Z,6.68
2023-01-07T00:56:25.523Z,6.68
2023-01-07T00:58:52.585Z,6.68
2023-01-07T01:01:19.729Z,6.67
2023-01-07T01:03:46.926Z,6.66
2023-01-07T01:06:14.828Z,6.65
2023-01-07T01:08:47.315Z,6.63
2023-01-07T01:11:14.917Z,6.61
2023-01-07T01:13:42.273Z,6.60
2023-01-07T01:16:15.460Z,6.58
2023-01-07T01:18:42.730Z,6.59
2023-01-07T01:21:10.878Z,6.58
2023-01-07T01:23:40.387Z,6.57
2023-01-07T01:26:11.568Z,6.55
2023-01-07T01:28:39.032Z,6.55
2023-01-07T01:31:06.265Z,6.54
2023-01-07T01:33:43.215Z,6.54
2023-01-07T01:36:11.024Z,6.52
2023-01-07T01:38:40.798Z,6.50
2023-01-07T01:41:09.591Z,6.49
2023-01-07T01:43:40.344Z,6.47
2023-01-07T01:46:13.618Z,6.45
2023-01-07T01:48:42.291Z,6.44
2023-01-07T01:51:09.674Z,6.42
2023-01-07T01:53:39.387Z,6.40
2023-01-07T01:56:11.874Z,6.39
2023-01-07T01:58:57.142Z,6.37
2023-01-07T02:01:26.937Z,6.38
2023-01-07T02:03:57.836Z,6.37
2023-01-07T02:06:25.689Z,6.34
2023-01-07T02:08:54.024Z,6.35
2023-01-07T02:11:38.459Z,6.33
2023-01-07T02:14:10.568Z,6.32
2023-01-07T02:16:49.950Z,6.32
2023-01-07T02:19:25.999Z,6.31
2023-01-07T02:21:58.892Z,6.30
2023-01-07T02:24:29.676Z,6.29
2023-01-07T02:26:56.768Z,6.27
2023-01-07T02:29:30.063Z,6.27
2023-01-07T02:32:00.282Z,6.26
2023-01-07T02:34:27.285Z,6.26
2023-01-07T02:37:17.604Z,6.24
2023-01-07T02:40:03.535Z,6.24
2023-01-07T02:42:49.175Z,6.22
2023-01-07T02:45:18.759Z,6.22
2023-01-07T02:47:55.491Z,6.21
2023-01-07T02:50:22.836Z,6.20
2023-01-07T02:52:51.126Z,6.19
2023-01-07T02:55:22.032Z,6.19
2023-01-07T02:57:50.029Z,6.18
2023-01-07T03:00:32.542Z,6.16
2023-01-07T03:03:03.598Z,6.15
2023-01-07T03:05:30.781Z,6.16
2023-01-07T03:08:11.795Z,6.14
2023-01-07T03:10:45.819Z,6.13
2023-01-07T03:13:23.885Z,6.12
2023-01-07T03:15:51.063Z,6.12
2023-01-07T03:18:22.881Z,6.12
2023-01-07T03:20:51.404Z,6.11
2023-01-07T03:23:19.237Z,6.10
2023-01-07T03:25:46.755Z,6.07
2023-01-07T03:28:14.902Z,6.06
2023-01-07T03:30:43.414Z,6.06
2023-01-07T03:33:12.593Z,6.05
2023-01-07T03:35:39.641Z,6.03
2023-01-07T03:38:07.956Z,6.02
2023-01-07T03:40:35.711Z,6.01
2023-01-07T03:43:02.804Z,6.00
2023-01-07T03:45:30.238Z,6.00
2023-01-07T03:47:59.573Z,5.99
2023-01-07T03:50:33.794Z,5.99
2023-01-07T03:53:01.067Z,5.98
2023-01-07T03:55:29.623Z,5.96
2023-01-07T03:57:57.742Z,5.95
2023-01-07T04:00:25.871Z,5.93
2023-01-07T04:02:59.886Z,5.93
2023-01-07T04:05:31.192Z,5.92
2023-01-07T04:08:01.172Z,5.92
2023-01-07T04:10:32.777Z,5.91
2023-01-07T04:12:59.830Z,5.90
2023-01-07T04:15:26.796Z,5.90
2023-01-07T04:17:54.562Z,5.89
2023-01-07T04:20:26.007Z,5.88
2023-01-07T04:22:54.331Z,5.87
2023-01-07T04:25:22.131Z,5.85
2023-01-07T04:27:49.703Z,5.85
2023-01-07T04:30:17.033Z,5.86
2023-01-07T04:32:44.087Z,5.85
2023-01-07T04:35:11.270Z,5.84
2023-01-07T04:37:41.070Z,5.84
2023-01-07T04:40:09.420Z,5.83
2023-01-07T04:42:37.419Z,5.82
2023-01-07T04:45:09.356Z,5.83
2023-01-07T04:47:37.777Z,5.82
2023-01-07T04:50:06.318Z,5.82
2023-01-07T04:52:35.457Z,5.82
2023-01-07T04:55:04.604Z,5.80
2023-01-07T04:57:31.763Z,5.80
2023-01-07T04:59:59.471Z,5.80
2023-01-07T05:02:26.596Z,5.78
2023-01-07T05:04:53.645Z,5.76
2023-01-07T05:07:21.613Z,5.76
2023-01-07T05:09:48.894Z,5.76
2023-01-07T05:12:15.924Z,5.75
2023-01-07T05:14:44.220Z,5.76
2023-01-07T05:17:11.895Z,5.75
2023-01-07T05:19:40.218Z,5.75
2023-01-07T05:22:11.249Z,5.74
2023-01-07T05:24:40.541Z,5.74
2023-01-07T05:27:10.528Z,5.74
2023-01-07T05:29:41.346Z,5.75
2023-01-07T05:32:08.649Z,5.74
2023-01-07T05:34:38.759Z,5.73
2023-01-07T05:37:12.125Z,5.73
2023-01-07T05:39:43.755Z,5.73
2023-01-07T05:42:19.980Z,5.72
2023-01-07T05:44:49.518Z,5.71
2023-01-07T05:47:16.656Z,5.72
2023-01-07T05:49:45.056Z,5.71
2023-01-07T05:52:14.073Z,5.72
2023-01-07T05:54:43.437Z,5.72
2023-01-07T05:57:11.480Z,5.71
2023-01-07T05:59:38.799Z,5.70
2023-01-07T06:02:07.218Z,5.70
2023-01-07T06:04:38.068Z,5.69
2023-01-07T06:07:05.942Z,5.69
2023-01-07T06:09:33.786Z,5.69
2023-01-07T06:12:00.999Z,5.69
2023-01-07T06:14:28.000Z,5.70
2023-01-07T06:16:54.938Z,5.69
2023-01-07T06:19:23.165Z,5.68
2023-01-07T06:21:51.965Z,5.69
2023-01-07T06:24:19.617Z,5.66
2023-01-07T06:26:46.764Z,5.67
2023-01-07T06:29:28.185Z,5.67
2023-01-07T06:38:11.352Z,5.67
2023-01-07T06:40:39.683Z,5.67
2023-01-07T07:07:36.048Z,5.66
2023-01-07T07:10:17.018Z,5.66
2023-01-07T07:12:50.458Z,5.65
2023-01-07T07:15:33.398Z,5.65
2023-01-07T07:18:03.591Z,5.66
2023-01-07T07:21:05.747Z,5.65
2023-01-07T07:23:34.595Z,5.64
2023-01-07T07:26:04.738Z,5.66
2023-01-07T07:29:21.771Z,5.65
2023-01-07T07:31:49.977Z,5.65
2023-01-07T07:34:19.589Z,5.65
2023-01-07T07:36:46.650Z,5.65
2023-01-07T07:39:13.786Z,5.66
2023-01-07T07:41:40.798Z,5.68
2023-01-07T07:44:13.897Z,5.68
2023-01-07T07:46:42.046Z,5.69
2023-01-07T07:49:08.973Z,5.70
2023-01-07T07:51:35.790Z,5.70
2023-01-07T07:54:02.622Z,5.71
2023-01-07T07:56:29.600Z,5.72
2023-01-07T07:58:56.971Z,5.74
2023-01-07T08:01:24.059Z,5.75
2023-01-07T08:03:56.505Z,5.76
2023-01-07T08:06:23.586Z,5.77
2023-01-07T08:08:55.083Z,5.78
2023-01-07T08:11:21.952Z,5.80
2023-01-07T08:13:48.940Z,5.82
2023-01-07T08:19:20.002Z,5.84
2023-01-07T08:21:59.762Z,5.86
2023-01-07T08:24:28.690Z,5.87
2023-01-07T08:26:57.678Z,5.88
2023-01-07T08:30:11.857Z,5.89
2023-01-07T08:35:43.764Z,5.92
2023-01-07T08:38:10.768Z,5.94
2023-01-07T08:40:38.188Z,5.95
2023-01-07T08:43:08.366Z,5.96
2023-01-07T08:45:38.251Z,5.96
2023-01-07T08:48:12.134Z,5.98
2023-01-07T08:50:49.925Z,5.99
2023-01-07T08:53:24.095Z,6.02
2023-01-07T08:55:59.964Z,6.02
2023-01-07T08:58:28.532Z,6.05
2023-01-07T09:00:55.622Z,6.05
2023-01-07T09:03:22.758Z,6.07
2023-01-07T09:05:49.611Z,6.10
2023-01-07T09:08:16.613Z,6.12
2023-01-07T09:10:43.677Z,6.14
2023-01-07T09:13:10.658Z,6.16
2023-01-07T09:15:37.579Z,6.18
2023-01-07T09:18:04.604Z,6.20
2023-01-07T09:20:31.684Z,6.23
2023-01-07T09:22:58.566Z,6.25
2023-01-07T09:25:33.056Z,6.27
2023-01-07T09:28:10.612Z,6.32
2023-01-07T09:30:37.679Z,6.33
2023-01-07T09:33:04.963Z,6.34
2023-01-07T09:35:32.031Z,6.36
2023-01-07T09:38:01.395Z,6.38
2023-01-07T09:40:29.214Z,6.39
2023-01-07T09:42:58.324Z,6.40
2023-01-07T09:45:32.880Z,6.41
2023-01-07T09:48:00.489Z,6.42
2023-01-07T09:50:46.251Z,6.44
2023-01-07T09:53:19.168Z,6.46
2023-01-07T09:56:10.578Z,6.48
2023-01-07T09:58:39.495Z,6.49
2023-01-07T10:01:25.178Z,6.50
2023-01-07T10:04:19.837Z,6.52
2023-01-07T10:07:06.092Z,6.53
2023-01-07T10:09:53.810Z,6.54
2023-01-07T10:13:07.289Z,6.56
2023-01-07T10:20:01.185Z,6.61
2023-01-07T10:23:02.570Z,6.63
2023-01-07T10:25:52.177Z,6.64
2023-01-07T10:28:34.494Z,6.67
2023-01-07T10:31:01.853Z,6.68
2023-01-07T10:33:33.241Z,6.70
2023-01-07T10:36:11.849Z,6.71
2023-01-07T10:38:50.938Z,6.74
2023-01-07T10:41:36.094Z,6.75
2023-01-07T10:44:09.857Z,6.77
2023-01-07T10:46:55.157Z,6.79
2023-01-07T10:49:40.779Z,6.81
2023-01-07T10:52:13.416Z,6.85
2023-01-07T11:48:49.431Z,7.44
2023-01-07T11:50:32.876Z,7.47
2023-01-07T12:03:46.465Z,7.55
2023-01-07T12:06:43.885Z,7.55
2023-01-07T12:09:33.064Z,7.57
2023-01-07T12:12:34.780Z,7.58
2023-01-07T12:15:26.319Z,7.60
2023-01-07T12:18:15.859Z,7.60
2023-01-07T12:21:23.873Z,7.61
2023-01-07T12:24:16.758Z,7.63
2023-01-07T12:26:55.278Z,7.66
2023-01-07T12:30:01.666Z,7.67
2023-01-07T12:32:55.580Z,7.67
2023-01-07T12:45:43.993Z,7.74
2023-01-07T12:48:21.666Z,7.75
2023-01-07T12:51:10.314Z,7.76
2023-01-07T13:15:01.730Z,7.82
2023-01-07T13:18:05.616Z,7.83
2023-01-07T13:20:45.358Z,7.82
2023-01-07T13:23:41.022Z,7.82
2023-01-07T13:26:25.669Z,7.83
2023-01-07T13:29:45.853Z,7.82
2023-01-07T13:32:27.257Z,7.82
2023-01-07T13:35:17.314Z,7.82
2023-01-07T13:38:07.173Z,7.83
2023-01-07T13:40:49.529Z,7.82
2023-01-07T13:43:45.308Z,7.82
2023-01-07T13:46:27.434Z,7.82
2023-01-07T13:49:00.238Z,7.82
2023-01-07T13:51:43.986Z,7.82
2023-01-07T13:54:15.025Z,7.82
2023-01-07T13:56:44.482Z,7.82
2023-01-07T13:59:37.748Z,7.82
2023-01-07T14:05:11.391Z,7.81
2023-01-07T14:08:06.036Z,7.81
2023-01-07T14:10:34.601Z,7.82
2023-01-07T14:13:20.674Z,7.81
2023-01-07T14:15:55.335Z,7.79
2023-01-07T14:18:27.425Z,7.80
2023-01-07T14:21:11.434Z,7.80
2023-01-07T14:23:48.069Z,7.79
2023-01-07T14:26:21.019Z,7.79
2023-01-07T14:29:06.741Z,7.79
2023-01-07T14:31:36.157Z,7.78
2023-01-07T14:34:05.051Z,7.77
2023-01-07T14:36:52.651Z,7.76
2023-01-07T14:39:32.470Z,7.75
2023-01-07T14:42:18.153Z,7.75
2023-01-07T14:44:52.216Z,7.74
2023-01-07T14:47:37.925Z,7.74
2023-01-07T14:50:09.957Z,7.73
2023-01-07T14:52:43.863Z,7.72
2023-01-07T14:55:13.884Z,7.71
2023-01-07T14:57:52.410Z,7.70
2023-01-07T15:00:45.704Z,7.69
2023-01-07T15:03:26.761Z,7.68
2023-01-07T15:05:58.794Z,7.68
2023-01-07T15:08:44.816Z,7.67
2023-01-07T15:11:34.772Z,7.65
2023-01-07T15:14:24.098Z,7.66
2023-01-07T15:16:55.998Z,7.65
2023-01-07T15:19:23.055Z,7.65
2023-01-07T15:21:53.114Z,7.63
2023-01-07T15:24:36.727Z,7.62
2023-01-07T15:27:04.008Z,7.63
2023-01-07T15:29:33.815Z,7.61
2023-01-07T15:32:19.455Z,7.61
2023-01-07T15:34:46.317Z,7.59
2023-01-07T15:37:13.728Z,7.59
2023-01-07T15:39:43.730Z,7.58
2023-01-07T15:42:14.290Z,7.56
2023-01-07T15:44:41.422Z,7.56
2023-01-07T15:47:26.985Z,7.55
2023-01-07T15:50:00.559Z,7.54
2023-01-07T15:52:28.091Z,7.54
2023-01-07T15:54:56.264Z,7.53
2023-01-07T15:57:27.154Z,7.52
2023-01-07T15:59:54.246Z,7.51
2023-01-07T16:02:22.186Z,7.50
2023-01-07T16:04:51.211Z,7.49
2023-01-07T16:07:25.828Z,7.49
2023-01-07T16:09:52.949Z,7.47
2023-01-07T16:12:30.410Z,7.47
2023-01-07T16:14:58.163Z,7.47
2023-01-07T16:17:27.750Z,7.46
2023-01-07T16:20:11.172Z,7.45
2023-01-07T16:22:38.341Z,7.44
2023-01-07T16:25:05.884Z,7.43
2023-01-07T16:27:32.932Z,7.42
2023-01-07T16:30:00.166Z,7.41
2023-01-07T16:32:27.139Z,7.40
2023-01-07T16:35:03.153Z,7.40
2023-01-07T16:37:30.080Z,7.40
2023-01-07T16:39:56.896Z,7.38
2023-01-07T16:42:27.676Z,7.39
2023-01-07T16:44:59.219Z,7.37
2023-01-07T16:47:26.794Z,7.38
2023-01-07T16:49:59.906Z,7.35
2023-01-07T16:52:29.019Z,7.35
2023-01-07T16:54:56.080Z,7.35
2023-01-07T16:57:25.874Z,7.34
2023-01-07T16:59:56.245Z,7.33
2023-01-07T17:02:43.949Z,7.32
2023-01-07T17:05:22.174Z,7.31
2023-01-07T17:07:53.841Z,7.32
2023-01-07T17:13:25.938Z,7.31
2023-01-07T17:15:56.269Z,7.29
2023-01-07T17:18:33.188Z,7.29
2023-01-07T17:21:03.032Z,7.29
2023-01-07T17:28:20.420Z,7.27
2023-01-07T17:30:56.051Z,7.26
2023-01-07T17:54:27.783Z,7.20
2023-01-07T17:56:58.762Z,7.20
2023-01-07T17:59:30.815Z,7.20
2023-01-07T18:01:59.553Z,7.18
2023-01-07T18:04:27.160Z,7.19
2023-01-07T18:06:54.323Z,7.17
2023-01-07T18:09:21.339Z,7.16
2023-01-07T18:12:09.548Z,7.17
2023-01-07T18:14:38.999Z,7.15
2023-01-07T18:20:50.274Z,7.14
2023-01-07T18:23:19.705Z,7.14
2023-01-07T18:25:48.641Z,7.13
2023-01-07T18:28:16.113Z,7.12
2023-01-07T18:30:59.509Z,7.13
2023-01-07T18:33:33.380Z,7.12
2023-01-07T18:38:59.699Z,7.11
2023-01-07T18:41:27.927Z,7.10
2023-01-07T18:43:54.820Z,7.09
2023-01-07T18:46:24.065Z,7.09
2023-01-07T18:48:51.167Z,7.07
2023-01-07T18:58:27.374Z,7.05
2023-01-07T19:01:04.470Z,7.04
2023-01-07T19:06:35.988Z,7.04
2023-01-07T19:09:14.450Z,7.02
2023-01-07T19:11:47.194Z,7.02
2023-01-07T19:14:15.504Z,7.02
2023-01-07T19:16:42.796Z,7.01
2023-01-07T19:19:10.281Z,7.00
2023-01-07T19:21:37.348Z,7.01
2023-01-07T19:24:09.945Z,7.00
2023-01-07T19:26:42.452Z,6.99
2023-01-07T19:29:21.410Z,6.99
2023-01-07T19:31:59.865Z,6.99
2023-01-07T19:35:05.040Z,6.97
2023-01-07T19:38:13.980Z,6.97
2023-01-07T19:41:00.282Z,6.97
2023-01-07T19:43:29.772Z,6.95
2023-01-07T19:45:58.598Z,6.96
2023-01-07T19:48:25.899Z,6.95
2023-01-07T19:50:53.896Z,6.93
2023-01-07T19:53:25.186Z,6.93
2023-01-07T19:55:54.580Z,6.93
2023-01-07T19:58:21.975Z,6.93
2023-01-07T20:00:54.080Z,6.92
2023-01-07T20:03:22.335Z,6.92
2023-01-07T20:05:49.534Z,6.92
2023-01-07T20:08:17.285Z,6.92
2023-01-07T20:10:45.623Z,6.91
2023-01-07T20:13:14.827Z,6.89
2023-01-07T20:15:42.039Z,6.90
2023-01-07T20:18:09.032Z,6.90
2023-01-07T20:20:35.920Z,6.89
2023-01-07T20:23:04.129Z,6.89
2023-01-07T20:25:31.427Z,6.89
2023-01-07T20:27:58.368Z,6.88
2023-01-07T20:30:25.729Z,6.88
2023-01-07T20:32:52.549Z,6.88
2023-01-07T20:35:19.298Z,6.87
2023-01-07T20:37:46.223Z,6.87
2023-01-07T20:40:15.072Z,6.87
2023-01-07T20:42:43.888Z,6.86
2023-01-07T20:45:10.971Z,6.87
2023-01-07T20:47:37.916Z,6.86
2023-01-07T20:50:06.855Z,6.86
2023-01-07T20:52:41.443Z,6.86
2023-01-07T20:55:16.527Z,6.85
2023-01-07T20:57:49.180Z,6.86
2023-01-07T21:00:30.708Z,6.85
2023-01-07T21:03:01.044Z,6.84
2023-01-07T21:08:24.992Z,6.84
2023-01-07T21:10:52.638Z,6.84
2023-01-07T21:13:23.469Z,6.83
2023-01-07T21:15:50.980Z,6.84
2023-01-07T21:18:39.655Z,6.83
2023-01-07T21:21:13.347Z,6.83
2023-01-07T21:23:51.217Z,6.83
2023-01-07T21:26:36.607Z,6.82
2023-01-07T21:29:03.410Z,6.81
2023-01-07T21:31:30.240Z,6.83
2023-01-07T21:33:57.482Z,6.83
2023-01-07T21:36:24.589Z,6.82
2023-01-07T21:38:55.641Z,6.82
2023-01-07T21:41:22.854Z,6.82
2023-01-07T21:43:50.138Z,6.82
2023-01-07T21:46:17.843Z,6.82
2023-01-07T21:48:46.804Z,6.80
2023-01-07T21:51:18.546Z,6.81
2023-01-07T21:53:45.487Z,6.83
2023-01-07T21:56:15.138Z,6.82
2023-01-07T21:58:44.661Z,6.82
2023-01-07T22:01:11.915Z,6.82
2023-01-07T22:03:38.932Z,6.82
2023-01-07T22:06:14.315Z,6.82
2023-01-07T22:08:41.485Z,6.82
2023-01-07T22:11:11.173Z,6.82
2023-01-07T22:13:38.026Z,6.82
2023-01-07T22:16:05.353Z,6.82
2023-01-07T22:18:32.218Z,6.84
2023-01-07T22:20:59.007Z,6.85
2023-01-07T22:23:26.016Z,6.87
2023-01-07T22:25:54.260Z,6.88
2023-01-07T22:28:22.304Z,6.91
2023-01-07T22:30:50.841Z,6.91
2023-01-07T22:33:17.595Z,6.92
2023-01-07T22:35:44.567Z,6.94
2023-01-07T22:38:12.049Z,6.95
2023-01-07T22:40:38.953Z,6.96
2023-01-07T22:43:06.755Z,6.98
2023-01-07T22:45:38.550Z,6.99
2023-01-07T22:48:05.498Z,7.01
2023-01-07T22:50:32.301Z,7.02
2023-01-07T22:52:59.096Z,7.05
2023-01-07T22:55:25.849Z,7.05
2023-01-07T22:57:52.847Z,7.07
2023-01-07T23:00:38.443Z,7.09
2023-01-07T23:03:05.513Z,7.10
2023-01-07T23:05:32.445Z,7.11
2023-01-07T23:07:59.341Z,7.13
2023-01-07T23:10:26.117Z,7.15
2023-01-07T23:12:52.973Z,7.15
2023-01-07T23:15:19.790Z,7.16
2023-01-07T23:17:46.699Z,7.17
2023-01-07T23:20:13.488Z,7.18
2023-01-07T23:22:40.399Z,7.19
2023-01-07T23:25:07.621Z,7.21
2023-01-07T23:27:34.605Z,7.21
2023-01-07T23:30:01.465Z,7.21
2023-01-07T23:32:28.384Z,7.23
2023-01-07T23:34:55.247Z,7.24
2023-01-07T23:37:22.184Z,7.25
2023-01-07T23:39:49.098Z,7.26
2023-01-07T23:42:15.965Z,7.26
2023-01-07T23:44:42.700Z,7.28
2023-01-07T23:47:09.536Z,7.28
2023-01-07T23:49:36.331Z,7.28
2023-01-07T23:52:03.274Z,7.29
2023-01-07T23:54:30.307Z,7.30
2023-01-07T23:56:57.130Z,7.30
2023-01-07T23:59:24.134Z,7.30
